• Join FlightAware (Why Join?)
  • Login
  • US Flag 
05:39AM EDT


 

Airport Tracker/Info


-or-


 

Live Flight TrackerFlight Track Log ✈ BEE2115 ✈ 24-Apr-2013 ✈ EFHK / HEL - EETN / TLL

Flight Track Log - Related Links

Times and Time Zones

All times are in EDT time to prevent confusion due to time zone crossing. See the BEE2115 flight status page for this flight to view local times or setup timezone preferences in your user account.

Time Position Orientation Groundspeed Altitude Reporting Facility
EDT Latitude Longitude Course Direction KTS MPH feet Rate Location/Type
01:35PM 60.1875 24.9442 184° South  Level Estimated
01:36PM 60.1442 24.9378 184° South  Level Estimated
01:37PM 60.1009 24.9315 184° South  Level Estimated
01:38PM 60.0577 24.9251 184° South  Level Estimated
01:39PM 60.0144 24.9188 184° South  Level Estimated
01:40PM 59.9711 24.9125 184° South  Level Estimated
01:41PM 59.9279 24.9062 184° South  Level Estimated
01:42PM 59.8846 24.9000 184° South  Level Estimated
01:43PM 59.8414 24.8937 184° South  Level Estimated
01:44PM 59.7981 24.8875 184° South  Level Estimated
01:45PM 59.7548 24.8813 184° South  Level Estimated
01:46PM 59.7116 24.8751 184° South  Level Estimated
01:47PM 59.6683 24.8689 184° South  Level Estimated
01:48PM 59.6251 24.8628 184° South  Level Estimated
01:49PM 59.5818 24.8566 184° South  Level Estimated
01:50PM 59.5386 24.8505 184° South  Level Estimated
01:51PM 59.4953 24.8444 184° South  Level Estimated
01:52PM 59.4520 24.8383 184° South  Level Estimated
01:53PM 59.4133 24.8328 184° South  Level Estimated
01:54PM 59.4133 24.8328 146° Southeast  Level Estimated
01:55PM 59.4133 24.8328 146° Southeast  Level Estimated
01:56PM 59.4133 24.8328 146° Southeast  Level Estimated
01:57PM 59.4133 24.8328 146° Southeast  Level Estimated